createdAt,value
2018-12-04T00:00:35.810Z,100033.72
2018-12-04T00:03:04.716Z,100036.73
2018-12-04T00:05:33.733Z,100040.84
2018-12-04T00:08:01.994Z,100052.23
2018-12-04T00:10:30.176Z,100058.13
2018-12-04T00:12:58.438Z,100069.77
2018-12-04T00:15:26.708Z,100068.42
2018-12-04T00:17:55.032Z,100068.81
2018-12-04T00:20:23.217Z,100065.01
2018-12-04T00:22:51.481Z,100081.67
2018-12-04T00:25:19.741Z,100082.81
2018-12-04T00:27:47.925Z,100095.38
2018-12-04T00:30:16.125Z,100111.89
2018-12-04T00:32:44.372Z,100110.39
2018-12-04T00:35:12.648Z,100121.48
2018-12-04T00:37:40.877Z,100114.08
2018-12-04T00:40:09.821Z,100125.53
2018-12-04T00:42:38.057Z,100135.28
2018-12-04T00:45:08.124Z,100124.34
2018-12-04T00:47:36.352Z,100131.95
2018-12-04T00:50:05.078Z,100140.23
2018-12-04T00:52:33.325Z,100141.42
2018-12-04T00:55:01.630Z,100155.09
2018-12-04T00:57:29.908Z,100156.52
2018-12-04T00:59:58.165Z,100166.45
2018-12-04T01:02:26.400Z,100173.73
2018-12-04T01:04:54.609Z,100173.70
2018-12-04T01:07:23.204Z,100186.88
2018-12-04T01:09:51.417Z,100192.36
2018-12-04T01:12:19.669Z,100200.40
2018-12-04T01:14:47.917Z,100205.90
2018-12-04T01:17:16.233Z,100213.98
2018-12-04T01:19:44.478Z,100211.44
2018-12-04T01:22:12.795Z,100219.87
2018-12-04T01:24:41.029Z,100218.72
2018-12-04T01:27:09.325Z,100221.72
2018-12-04T01:29:37.565Z,100226.80
2018-12-04T01:32:05.748Z,100233.13
2018-12-04T01:34:34.039Z,100245.20
2018-12-04T01:37:02.333Z,100244.37
2018-12-04T01:39:30.524Z,100258.34
2018-12-04T01:41:58.784Z,100262.22
2018-12-04T01:44:27.345Z,100265.69
2018-12-04T01:46:55.620Z,100280.03
2018-12-04T01:49:23.940Z,100281.37
2018-12-04T01:51:52.168Z,100292.78
2018-12-04T01:54:20.456Z,100293.52
2018-12-04T01:56:49.074Z,100296.02
2018-12-04T01:59:17.345Z,100307.89
2018-12-04T02:01:45.593Z,100304.25
2018-12-04T02:04:13.884Z,100313.12
2018-12-04T02:06:42.141Z,100320.11
2018-12-04T02:09:10.451Z,100330.59
2018-12-04T02:11:38.652Z,100336.63
2018-12-04T02:14:09.517Z,100339.68
2018-12-04T02:16:37.713Z,100339.37
2018-12-04T02:19:05.968Z,100348.27
2018-12-04T02:21:34.294Z,100343.63
2018-12-04T02:24:02.572Z,100358.31
2018-12-04T02:26:30.853Z,100361.25
2018-12-04T02:28:59.240Z,100365.86
2018-12-04T02:31:27.788Z,100368.83
2018-12-04T02:33:56.024Z,100371.85
2018-12-04T02:36:24.286Z,100379.39
2018-12-04T02:38:52.841Z,100379.45
2018-12-04T02:41:21.085Z,100383.28
2018-12-04T02:43:49.366Z,100388.01
2018-12-04T02:46:17.836Z,100397.77
2018-12-04T02:48:46.165Z,100404.16
2018-12-04T02:51:14.746Z,100403.84
2018-12-04T02:53:42.953Z,100411.01
2018-12-04T02:56:11.173Z,100420.28
2018-12-04T02:58:39.472Z,100435.05
2018-12-04T03:01:07.661Z,100435.05
2018-12-04T03:03:35.893Z,100446.38
2018-12-04T03:06:04.205Z,100449.41
2018-12-04T03:08:32.445Z,100451.95
2018-12-04T03:11:00.664Z,100457.77
2018-12-04T03:13:29.206Z,100458.09
2018-12-04T03:15:57.384Z,100459.73
2018-12-04T03:18:25.676Z,100474.08
2018-12-04T03:20:53.866Z,100475.05
2018-12-04T03:23:22.076Z,100483.57
2018-12-04T03:25:50.293Z,100489.14
2018-12-04T03:28:18.624Z,100490.92
2018-12-04T03:30:46.870Z,100491.83
2018-12-04T03:33:25.004Z,100499.38
2018-12-04T03:35:53.217Z,100511.28
2018-12-04T03:38:21.504Z,100515.09
2018-12-04T03:40:50.216Z,100513.88
2018-12-04T03:43:18.557Z,100516.41
2018-12-04T03:45:46.810Z,100516.10
2018-12-04T03:48:15.061Z,100525.37
2018-12-04T03:50:43.529Z,100525.47
2018-12-04T03:53:11.805Z,100541.52
2018-12-04T03:55:40.394Z,100538.64
2018-12-04T03:58:08.589Z,100562.25
2018-12-04T04:00:36.852Z,100555.94
2018-12-04T04:03:05.131Z,100570.75
2018-12-04T04:05:33.409Z,100577.98
2018-12-04T04:08:01.596Z,100577.62
2018-12-04T04:10:29.810Z,100589.92
2018-12-04T04:12:58.104Z,100597.15
2018-12-04T04:15:26.501Z,100600.97
2018-12-04T04:17:54.759Z,100613.66
2018-12-04T04:20:23.071Z,100622.92
2018-12-04T04:22:51.372Z,100632.22
2018-12-04T04:25:19.993Z,100631.77
2018-12-04T04:27:48.269Z,100632.64
2018-12-04T04:30:16.503Z,100634.81
2018-12-04T04:32:45.061Z,100632.72
2018-12-04T04:35:13.393Z,100638.95
2018-12-04T04:37:41.625Z,100644.02
2018-12-04T04:40:09.808Z,100633.92
2018-12-04T04:42:38.033Z,100631.39
2018-12-04T04:45:07.198Z,100636.91
2018-12-04T04:47:35.542Z,100645.34
2018-12-04T04:50:03.953Z,100642.42
2018-12-04T04:52:32.145Z,100651.70
2018-12-04T04:55:00.383Z,100667.26
2018-12-04T04:57:28.586Z,100668.52
2018-12-04T04:59:56.891Z,100669.36
2018-12-04T05:02:25.120Z,100677.77
2018-12-04T05:04:53.487Z,100689.98
2018-12-04T05:07:21.740Z,100690.05
2018-12-04T05:09:50.037Z,100693.09
2018-12-04T05:12:18.277Z,100697.02
2018-12-04T05:14:48.212Z,100704.20
2018-12-04T05:17:16.469Z,100700.44
2018-12-04T05:19:44.815Z,100696.22
2018-12-04T05:22:13.069Z,100711.81
2018-12-04T05:24:41.292Z,100706.75
2018-12-04T05:27:09.545Z,100714.34
2018-12-04T05:29:37.888Z,100710.96
2018-12-04T05:32:06.133Z,100722.34
2018-12-04T05:34:34.543Z,100713.95
2018-12-04T05:37:02.829Z,100721.13
2018-12-04T05:39:31.109Z,100715.61
2018-12-04T05:41:59.673Z,100725.74
2018-12-04T05:44:27.905Z,100737.11
2018-12-04T05:46:56.237Z,100745.11
2018-12-04T05:49:24.525Z,100747.64
2018-12-04T05:51:52.788Z,100765.33
2018-12-04T05:54:22.061Z,100764.88
2018-12-04T05:56:50.362Z,100766.53
2018-12-04T05:59:18.559Z,100796.83
2018-12-04T06:01:46.925Z,100819.52
2018-12-04T06:04:15.199Z,100811.26
2018-12-04T06:06:43.445Z,100805.00
2018-12-04T06:09:11.664Z,100816.06
2018-12-04T06:11:39.897Z,100816.13
2018-12-04T06:14:08.100Z,100825.02
2018-12-04T06:16:36.328Z,100827.17
2018-12-04T06:19:04.616Z,100836.04
2018-12-04T06:21:33.024Z,100840.27
2018-12-04T06:24:01.617Z,100851.63
2018-12-04T06:26:30.194Z,100856.66
2018-12-04T06:28:58.376Z,100862.16
2018-12-04T06:31:26.668Z,100875.66
2018-12-04T06:33:54.932Z,100869.77
2018-12-04T06:36:23.376Z,100877.34
2018-12-04T06:38:51.650Z,100878.20
2018-12-04T06:41:20.272Z,100882.41
2018-12-04T06:43:48.756Z,100887.05
2018-12-04T06:46:16.996Z,100888.31
2018-12-04T06:48:45.288Z,100894.64
2018-12-04T06:51:13.600Z,100903.50
2018-12-04T06:53:41.829Z,100907.72
2018-12-04T06:56:10.113Z,100911.97
2018-12-04T06:58:38.416Z,100921.27
2018-12-04T07:01:06.668Z,100929.68
2018-12-04T07:03:34.937Z,100939.80
2018-12-04T07:06:03.262Z,100943.60
2018-12-04T07:08:31.484Z,100946.14
2018-12-04T07:11:00.037Z,100947.83
2018-12-04T07:13:28.249Z,100960.88
2018-12-04T07:15:56.565Z,100973.91
2018-12-04T07:18:24.845Z,100978.53
2018-12-04T07:20:53.114Z,100986.97
2018-12-04T07:23:21.512Z,100992.87
2018-12-04T07:25:49.736Z,100997.08
2018-12-04T07:28:17.936Z,100997.51
2018-12-04T07:30:46.221Z,101002.14
2018-12-04T07:33:14.448Z,101006.36
2018-12-04T07:35:42.641Z,101016.04
2018-12-04T07:38:10.937Z,101018.98
2018-12-04T07:40:39.544Z,101021.94
2018-12-04T07:43:07.768Z,101028.66
2018-12-04T07:45:35.965Z,101038.34
2018-12-04T07:48:04.238Z,101049.71
2018-12-04T07:50:32.544Z,101053.52
2018-12-04T07:53:01.226Z,101058.56
2018-12-04T07:55:29.645Z,101061.50
2018-12-04T07:57:57.972Z,101063.59
2018-12-04T08:00:26.566Z,101077.09
2018-12-04T08:02:54.818Z,101073.72
2018-12-04T08:05:23.133Z,101087.63
2018-12-04T08:07:51.381Z,101087.20
2018-12-04T08:10:19.779Z,101091.84
2018-12-04T08:12:47.957Z,101098.16
2018-12-04T08:15:16.295Z,101098.99
2018-12-04T08:17:44.529Z,101104.48
2018-12-04T08:20:12.785Z,101110.80
2018-12-04T08:22:41.317Z,101128.50
2018-12-04T08:25:09.573Z,101130.18
2018-12-04T08:27:38.941Z,101144.52
2018-12-04T08:30:08.564Z,101150.83
2018-12-04T08:32:36.826Z,101165.15
2018-12-04T08:35:07.384Z,101173.56
2018-12-04T08:37:35.602Z,101191.70
2018-12-04T08:40:03.945Z,101190.41
2018-12-04T08:42:32.301Z,101200.96
2018-12-04T08:45:00.581Z,101206.02
2018-12-04T08:47:28.810Z,101214.88
2018-12-04T08:49:57.691Z,101211.97
2018-12-04T08:52:26.020Z,101219.11
2018-12-04T08:54:54.270Z,101223.31
2018-12-04T08:57:22.457Z,101230.06
2018-12-04T08:59:50.849Z,101237.23
2018-12-04T09:02:19.128Z,101244.81
2018-12-04T09:04:47.383Z,101251.14
2018-12-04T09:07:15.679Z,101266.75
2018-12-04T09:09:44.813Z,101263.80
2018-12-04T09:12:13.040Z,101269.30
2018-12-04T09:14:41.292Z,101276.87
2018-12-04T09:17:09.524Z,101291.69
2018-12-04T09:19:37.802Z,101307.28
2018-12-04T09:22:06.259Z,101319.52
2018-12-04T09:24:34.461Z,101331.76
2018-12-04T09:27:05.490Z,101349.48
2018-12-04T09:29:30.962Z,101346.09
2018-12-04T09:31:59.177Z,101352.84
2018-12-04T09:34:29.989Z,101347.78
2018-12-04T09:36:55.676Z,101344.83
2018-12-04T09:39:23.905Z,101338.92
2018-12-04T09:41:52.187Z,101343.56
2018-12-04T09:44:20.740Z,101355.80
2018-12-04T09:46:49.046Z,101375.97
2018-12-04T09:49:17.273Z,101381.84
2018-12-04T09:51:45.586Z,101378.41
2018-12-04T09:54:13.786Z,101367.00
2018-12-04T09:56:42.100Z,101360.66
2018-12-04T09:59:10.446Z,101369.92
2018-12-04T10:01:38.661Z,101373.72
2018-12-04T10:04:07.181Z,101373.70
2018-12-04T10:06:35.429Z,101381.28
2018-12-04T10:09:04.085Z,101388.08
2018-12-04T10:11:32.321Z,101393.61
2018-12-04T10:14:00.566Z,101398.28
2018-12-04T10:16:28.843Z,101397.03
2018-12-04T10:18:57.132Z,101399.25
2018-12-04T10:21:25.404Z,101408.55
2018-12-04T10:23:53.653Z,101410.66
2018-12-04T10:26:21.954Z,101414.03
2018-12-04T10:28:50.227Z,101410.22
2018-12-04T10:31:18.624Z,101419.50
2018-12-04T10:33:47.216Z,101432.19
2018-12-04T10:36:15.477Z,101432.19
2018-12-04T10:38:43.697Z,101438.93
2018-12-04T10:41:11.909Z,101441.05
2018-12-04T10:43:40.222Z,101432.17
2018-12-04T10:46:08.468Z,101438.09
2018-12-04T10:48:36.717Z,101437.22
2018-12-04T10:51:04.989Z,101434.66
2018-12-04T10:53:33.317Z,101450.30
2018-12-04T10:56:01.937Z,101466.36
2018-12-04T10:58:30.161Z,101459.99
2018-12-04T11:00:58.990Z,101467.62
2018-12-04T11:03:32.991Z,101478.19
2018-12-04T11:06:01.162Z,101473.09
2018-12-04T11:08:29.432Z,101480.70
2018-12-04T11:10:58.120Z,101476.87
2018-12-04T11:13:26.377Z,101495.90
2018-12-04T11:15:54.644Z,101495.44
2018-12-04T11:18:22.959Z,101506.44
2018-12-04T11:20:51.156Z,101497.59
2018-12-04T11:23:19.412Z,101513.64
2018-12-04T11:25:47.653Z,101523.36
2018-12-04T11:28:15.964Z,101512.80
2018-12-04T11:30:44.265Z,101514.46
2018-12-04T11:33:12.482Z,101512.35
2018-12-04T11:35:40.765Z,101519.52
2018-12-04T11:38:09.065Z,101531.75
2018-12-04T11:40:37.341Z,101538.96
2018-12-04T11:43:05.630Z,101555.03
2018-12-04T11:45:33.917Z,101552.48
2018-12-04T11:48:02.129Z,101558.41
2018-12-04T11:50:30.353Z,101570.29
2018-12-04T11:52:58.616Z,101577.88
2018-12-04T11:55:26.900Z,101582.13
2018-12-04T11:57:55.125Z,101595.66
2018-12-04T12:00:28.539Z,101587.62
2018-12-04T12:02:56.733Z,101594.38
2018-12-04T12:05:25.125Z,101590.56
2018-12-04T12:07:53.380Z,101588.83
2018-12-04T12:10:21.874Z,101585.87
2018-12-04T12:12:50.182Z,101592.63
2018-12-04T12:15:19.663Z,101589.66
2018-12-04T12:17:47.036Z,101594.32
2018-12-04T12:20:15.301Z,101604.92
2018-12-04T12:22:43.685Z,101596.49
2018-12-04T12:25:12.041Z,101603.68
2018-12-04T12:27:40.301Z,101610.44
2018-12-04T12:30:10.176Z,101618.89
2018-12-04T12:32:38.405Z,101614.25
2018-12-04T12:35:07.948Z,101621.01
2018-12-04T12:37:36.189Z,101624.39
2018-12-04T12:40:05.420Z,101634.95
2018-12-04T12:42:33.671Z,101640.45
2018-12-04T12:45:01.945Z,101638.34
2018-12-04T12:47:30.253Z,101648.91
2018-12-04T12:49:58.492Z,101642.98
2018-12-04T12:52:26.738Z,101656.52
2018-12-04T12:54:55.464Z,101669.62
2018-12-04T12:57:23.872Z,101663.70
2018-12-04T12:59:52.424Z,101670.45
2018-12-04T13:02:20.640Z,101678.91
2018-12-04T13:04:48.898Z,101677.64
2018-12-04T13:07:17.204Z,101686.95
2018-12-04T13:09:45.426Z,101688.22
2018-12-04T13:12:13.809Z,101693.28
2018-12-04T13:14:42.049Z,101689.06
2018-12-04T13:17:10.560Z,101689.48
2018-12-04T13:19:39.069Z,101685.27
2018-12-04T13:22:07.353Z,101694.56
2018-12-04T13:24:35.601Z,101701.33
2018-12-04T13:27:03.977Z,101711.89
2018-12-04T13:29:32.495Z,101719.08
2018-12-04T13:32:00.746Z,101728.80
2018-12-04T13:34:29.065Z,101744.84
2018-12-04T13:36:57.310Z,101749.06
2018-12-04T13:39:25.534Z,101753.31
2018-12-04T13:41:53.734Z,101770.64
2018-12-04T13:44:22.023Z,101770.20
2018-12-04T13:46:50.499Z,101781.59
2018-12-04T13:49:18.700Z,101781.61
2018-12-04T13:51:46.988Z,101794.28
2018-12-04T13:54:15.208Z,101780.36
2018-12-04T13:56:43.565Z,101787.12
2018-12-04T13:59:11.790Z,101790.87
2018-12-04T14:01:40.202Z,101789.17
2018-12-04T14:04:08.388Z,101781.13
2018-12-04T14:06:36.613Z,101779.41
2018-12-04T14:09:06.076Z,101779.35
2018-12-04T14:11:34.296Z,101792.87
2018-12-04T14:14:02.584Z,101791.55
2018-12-04T14:16:30.964Z,101778.45
2018-12-04T14:18:59.482Z,101791.20
2018-12-04T14:21:27.758Z,101798.84
2018-12-04T14:23:55.934Z,101798.41
2018-12-04T14:26:24.498Z,101823.76
2018-12-04T14:28:53.597Z,101816.02
2018-12-04T14:31:21.772Z,101818.80
2018-12-04T14:33:50.073Z,101801.85
2018-12-04T14:36:18.273Z,101822.95
2018-12-04T14:38:46.545Z,101806.05
2018-12-04T14:41:14.803Z,101818.70
2018-12-04T14:43:43.150Z,101817.02
2018-12-04T14:46:11.336Z,101819.98
2018-12-04T14:48:39.626Z,101823.39
2018-12-04T14:51:07.879Z,101838.17
2018-12-04T14:53:36.133Z,101835.62
2018-12-04T14:56:04.437Z,101835.95
2018-12-04T14:58:33.054Z,101847.79
2018-12-04T15:01:01.286Z,101846.95
2018-12-04T15:03:29.582Z,101857.02
2018-12-04T15:05:57.861Z,101861.23
2018-12-04T15:08:26.073Z,101865.42
2018-12-04T15:10:55.734Z,101864.97
2018-12-04T15:13:24.000Z,101863.27
2018-12-04T15:15:52.194Z,101874.63
2018-12-04T15:18:20.423Z,101875.91
2018-12-04T15:20:48.747Z,101886.80
2018-12-04T15:23:17.008Z,101885.94
2018-12-04T15:28:56.178Z,101900.72
2018-12-04T15:31:24.412Z,101899.02
2018-12-04T15:51:09.008Z,101929.17
2018-12-04T15:53:37.314Z,101938.36
2018-12-04T15:58:41.129Z,101960.55
2018-12-04T16:01:09.613Z,101965.14
2018-12-04T16:03:38.307Z,101970.97
2018-12-04T16:06:06.748Z,101978.97
2018-12-04T16:11:33.946Z,101984.02
2018-12-04T16:14:02.206Z,101989.45
2018-12-04T16:16:30.464Z,101983.93
2018-12-04T16:18:58.768Z,101988.93
2018-12-04T16:21:27.122Z,101993.11
2018-12-04T16:23:55.409Z,101987.97
2018-12-04T16:26:23.653Z,101989.16
2018-12-04T16:28:51.844Z,101991.69
2018-12-04T16:31:20.536Z,101999.23
2018-12-04T16:33:48.722Z,102000.06
2018-12-04T16:36:16.917Z,101994.16
2018-12-04T16:38:45.124Z,101993.66
2018-12-04T16:41:13.304Z,102002.87
2018-12-04T16:43:41.577Z,102002.80
2018-12-04T16:46:09.788Z,102006.59
2018-12-04T16:48:38.441Z,102005.23
2018-12-04T16:51:07.425Z,102013.64
2018-12-04T16:53:35.645Z,102021.20
2018-12-04T16:56:04.469Z,102026.25
2018-12-04T16:58:32.725Z,102030.02
2018-12-04T17:01:00.965Z,102020.69
2018-12-04T17:03:29.192Z,102029.13
2018-12-04T17:05:57.554Z,102024.88
2018-12-04T17:08:25.787Z,102032.79
2018-12-04T17:10:53.981Z,102039.88
2018-12-04T17:13:22.240Z,102035.24
2018-12-04T17:15:50.476Z,102038.18
2018-12-04T17:18:18.688Z,102044.94
2018-12-04T17:20:46.894Z,102048.31
2018-12-04T17:23:15.161Z,102055.87
2018-12-04T17:25:43.348Z,102054.24
2018-12-04T17:28:11.565Z,102065.69
2018-12-04T17:30:39.841Z,102062.80
2018-12-04T17:33:08.065Z,102071.33
2018-12-04T17:35:36.273Z,102075.70
2018-12-04T17:38:04.519Z,102072.79
2018-12-04T17:40:32.795Z,102077.14
2018-12-04T17:43:00.991Z,102088.97
2018-12-04T17:45:29.220Z,102090.28
2018-12-04T17:47:57.447Z,102096.60
2018-12-04T17:50:25.690Z,102087.40
2018-12-04T17:52:53.913Z,102089.56
2018-12-04T17:55:22.104Z,102092.11
2018-12-04T17:57:50.337Z,102096.60
2018-12-04T18:00:18.551Z,102099.09
2018-12-04T18:02:46.803Z,102102.37
2018-12-04T18:05:14.994Z,102099.77
2018-12-04T18:07:43.197Z,102102.29
2018-12-04T18:10:11.424Z,102099.69
2018-12-04T18:12:39.649Z,102102.97
2018-12-04T18:15:08.472Z,102102.09
2018-12-04T18:18:03.835Z,102109.28
2018-12-04T18:20:32.096Z,102110.06
2018-12-04T18:23:00.317Z,102113.82
2018-12-04T18:25:28.509Z,102117.20
2018-12-04T18:27:56.762Z,102117.23
2018-12-04T18:30:25.100Z,102120.14
2018-12-04T18:32:53.296Z,102119.78
2018-12-04T18:35:21.509Z,102122.80
2018-12-04T18:37:49.745Z,102135.05
2018-12-04T18:40:18.080Z,102129.99
2018-12-04T18:42:46.393Z,102135.88
2018-12-04T18:45:14.637Z,102148.07
2018-12-04T18:47:42.841Z,102164.50
2018-12-04T18:50:11.305Z,102161.97
2018-12-04T18:52:40.396Z,102160.70
2018-12-04T18:55:10.996Z,102171.31
2018-12-04T18:57:39.273Z,102173.89
2018-12-04T19:00:08.434Z,102170.59
2018-12-04T19:02:36.653Z,102183.25
2018-12-04T19:05:05.253Z,102176.50
2018-12-04T19:07:33.521Z,102184.05
2018-12-04T19:10:01.768Z,102189.94
2018-12-04T19:12:29.970Z,102189.55
2018-12-04T19:14:58.288Z,102192.52
2018-12-04T19:17:26.562Z,102197.52
2018-12-04T19:19:54.773Z,102196.23
2018-12-04T19:22:23.252Z,102199.11
2018-12-04T19:24:51.792Z,102198.17
2018-12-04T19:27:20.018Z,102197.35
2018-12-04T19:29:48.269Z,102217.95
2018-12-04T19:32:16.496Z,102211.66
2018-12-04T19:34:44.760Z,102226.47
2018-12-04T19:37:12.977Z,102227.73
2018-12-04T19:39:41.224Z,102228.17
2018-12-04T19:42:09.550Z,102229.77
2018-12-04T19:44:37.796Z,102230.91
2018-12-04T19:47:06.198Z,102226.69
2018-12-04T19:49:34.536Z,102236.79
2018-12-04T19:52:02.793Z,102240.96
2018-12-04T19:54:31.000Z,102249.81
2018-12-04T19:56:59.569Z,102249.69
2018-12-04T19:59:27.930Z,102246.72
2018-12-04T20:01:56.265Z,102251.80
2018-12-04T20:04:24.614Z,102252.22
2018-12-04T20:06:52.825Z,102255.56
2018-12-04T20:09:21.157Z,102257.68
2018-12-04T20:11:49.393Z,102260.97
2018-12-04T20:14:17.596Z,102271.80
2018-12-04T20:16:45.812Z,102269.53
2018-12-04T20:19:14.068Z,102276.57
2018-12-04T20:21:42.298Z,102274.39
2018-12-04T20:24:10.897Z,102281.45
2018-12-04T20:26:39.154Z,102289.69
2018-12-04T20:29:07.392Z,102298.39
2018-12-04T20:31:35.621Z,102299.89
2018-12-04T20:34:04.021Z,102292.55
2018-12-04T20:36:32.413Z,102299.13
2018-12-04T20:39:00.912Z,102299.47
2018-12-04T20:41:29.456Z,102305.71
2018-12-04T20:43:57.718Z,102303.08
2018-12-04T20:46:26.169Z,102301.70
2018-12-04T20:48:54.510Z,102310.39
2018-12-04T20:51:22.717Z,102306.94
2018-12-04T20:53:50.969Z,102312.73
2018-12-04T20:56:19.281Z,102309.28
2018-12-04T20:58:47.490Z,102311.72
2018-12-04T21:01:15.847Z,102317.58
2018-12-04T21:03:44.049Z,102316.17
2018-12-04T21:06:12.301Z,102319.84
2018-12-04T21:08:40.533Z,102320.58
2018-12-04T21:11:08.764Z,102318.39
2018-12-04T21:13:36.964Z,102312.86
2018-12-04T21:16:05.320Z,102323.35
2018-12-04T21:18:33.537Z,102318.63
2018-12-04T21:21:01.730Z,102315.59
2018-12-04T21:23:29.994Z,102329.01
2018-12-04T21:25:58.288Z,102323.89
2018-12-04T21:28:26.496Z,102326.77
2018-12-04T21:30:59.986Z,102332.63
2018-12-04T21:33:33.533Z,102336.77
2018-12-04T21:36:07.092Z,102340.07
2018-12-04T21:38:40.604Z,102347.59
2018-12-04T21:41:13.149Z,102352.23
2018-12-04T21:43:46.749Z,102347.06
2018-12-04T21:46:20.125Z,102358.23
2018-12-04T21:48:48.669Z,102357.25
2018-12-04T21:51:16.891Z,102347.90
2018-12-04T21:53:45.623Z,102359.52
2018-12-04T21:56:13.912Z,102357.27
2018-12-04T21:58:42.168Z,102359.16
2018-12-04T22:01:10.400Z,102357.25
2018-12-04T22:03:38.624Z,102358.78
2018-12-04T22:06:06.816Z,102370.38
2018-12-04T22:08:35.056Z,102371.91
2018-12-04T22:11:03.381Z,102370.88
2018-12-04T22:13:31.584Z,102379.14
2018-12-04T22:15:59.921Z,102374.77
2018-12-04T22:18:28.155Z,102380.57
2018-12-04T22:20:56.418Z,102380.52
2018-12-04T22:23:24.607Z,102377.96
2018-12-04T22:25:52.934Z,102379.53
2018-12-04T22:28:21.172Z,102387.39
2018-12-04T22:30:49.380Z,102391.47
2018-12-04T22:33:17.733Z,102396.41
2018-12-04T22:35:46.348Z,102390.42
2018-12-04T22:38:14.546Z,102394.65
2018-12-04T22:40:42.788Z,102389.62
2018-12-04T22:43:10.992Z,102379.69
2018-12-04T22:45:39.334Z,102392.73
2018-12-04T22:48:07.784Z,102399.42
2018-12-04T22:50:35.989Z,102398.72
2018-12-04T22:53:04.313Z,102402.55
2018-12-04T22:55:32.545Z,102400.83
2018-12-04T22:58:00.761Z,102403.70
2018-12-04T23:00:37.686Z,102400.38
2018-12-04T23:03:06.004Z,102405.36
2018-12-04T23:05:34.364Z,102406.58
2018-12-04T23:08:02.670Z,102407.03
2018-12-04T23:10:30.880Z,102406.93
2018-12-04T23:12:59.357Z,102405.12
2018-12-04T23:15:27.778Z,102401.16
2018-12-04T23:17:56.105Z,102405.64
2018-12-04T23:20:24.336Z,102402.84
2018-12-04T23:22:52.589Z,102398.81
2018-12-04T23:25:20.937Z,102393.73
2018-12-04T23:27:49.133Z,102398.26
2018-12-04T23:30:17.342Z,102395.69
2018-12-04T23:32:45.653Z,102393.63
2018-12-04T23:35:13.939Z,102395.74
2018-12-04T23:37:42.158Z,102396.95
2018-12-04T23:40:10.584Z,102402.73
2018-12-04T23:42:38.780Z,102397.15
2018-12-04T23:45:07.240Z,102398.70
2018-12-04T23:47:35.477Z,102412.09
2018-12-04T23:50:03.951Z,102412.03
2018-12-04T23:52:32.149Z,102409.06
2018-12-04T23:55:00.570Z,102405.75
2018-12-04T23:57:28.808Z,102405.84
2018-12-04T23:59:57.017Z,102398.05
